Time;durP1;ratioP1;P1;durP2;ratioP2;P2;SDS_P1;SDS_P2;PMS_P1;PMS_P2;Temp;Humidity;BMP_temperature;BMP_pressure;BME280_temperature;BME280_humidity;BME280_pressure;Samples;Min_cycle;Max_cycle;Signal;HPM_P1;HPM_P2
2023/06/24 00:01:25;;;;;;;16.50;12.70;;;;;;;-128.00;-1.00;-1.00;18892;295;7504344;-34
2023/06/24 00:03:52;;;;;;;16.90;13.30;;;;;;;-128.00;-1.00;-1.00;18468;296;7504300;-33
2023/06/24 00:06:22;;;;;;;18.50;10.90;;;;;;;-128.00;-1.00;-1.00;18473;295;7505220;-36
2023/06/24 00:08:48;;;;;;;14.30;10.90;;;;;;;-128.00;-1.00;-1.00;18479;288;7505409;-35
2023/06/24 00:11:14;;;;;;;21.30;10.60;;;;;;;-128.00;-1.00;-1.00;18473;288;7506575;-35
2023/06/24 00:13:40;;;;;;;13.60;9.20;;;;;;;-128.00;-1.00;-1.00;18476;297;7505238;-32
2023/06/24 00:16:06;;;;;;;18.10;8.70;;;;;;;-128.00;-1.00;-1.00;18482;296;7504890;-33
2023/06/24 00:18:33;;;;;;;16.20;11.80;;;;;;;-128.00;-1.00;-1.00;18478;296;7505116;-32
2023/06/24 00:21:01;;;;;;;15.30;12.50;;;;;;;-128.00;-1.00;-1.00;18459;296;7505066;-35
2023/06/24 00:23:28;;;;;;;13.30;10.70;;;;;;;-128.00;-1.00;-1.00;18483;288;7505232;-34
2023/06/24 00:25:54;;;;;;;19.40;14.20;;;;;;;-128.00;-1.00;-1.00;18498;296;7504957;-36
2023/06/24 00:28:21;;;;;;;13.90;8.40;;;;;;;-128.00;-1.00;-1.00;18479;288;7504746;-37
2023/06/24 00:30:47;;;;;;;13.10;10.30;;;;;;;-128.00;-1.00;-1.00;18485;336;7505152;-34
2023/06/24 00:33:13;;;;;;;14.20;9.90;;;;;;;-128.00;-1.00;-1.00;18501;296;7504769;-37
2023/06/24 00:35:39;;;;;;;10.00;8.90;;;;;;;-128.00;-1.00;-1.00;18485;288;7504758;-34
2023/06/24 01:17:48;;;;;;;19.80;12.80;;;;;;;-99.14;19.20;19911.96;19540;294;8045583;-35
2023/06/24 01:20:38;;;;;;;29.80;10.80;;;;;;;-128.00;-1.00;-1.00;18249;296;7505008;-34
2023/06/24 01:23:35;;;;;;;26.80;10.00;;;;;;;-128.00;-1.00;-1.00;18512;294;7506443;-35
2023/06/24 01:26:20;;;;;;;10.90;9.80;;;;;;;-128.00;-1.00;-1.00;18498;322;7506143;-35
2023/06/24 01:29:11;;;;;;;12.00;9.30;;;;;;;-128.00;-1.00;-1.00;18507;302;7506063;-37
2023/06/24 01:31:44;;;;;;;17.50;11.40;;;;;;;-128.00;-1.00;-1.00;18511;310;7505189;-37
2023/06/24 01:34:29;;;;;;;14.80;9.90;;;;;;;-128.00;-1.00;-1.00;18476;294;7505979;-34
2023/06/24 01:37:11;;;;;;;12.50;10.00;;;;;;;-128.00;-1.00;-1.00;18466;347;7507059;-34
2023/06/24 01:39:54;;;;;;;7.20;5.60;;;;;;;-128.00;-1.00;-1.00;18478;294;7504155;-37
2023/06/24 01:42:20;;;;;;;13.90;10.40;;;;;;;-128.00;-1.00;-1.00;18542;294;7506340;-35
2023/06/24 01:44:47;;;;;;;12.70;10.50;;;;;;;-128.00;-1.00;-1.00;18871;294;7505853;-34
2023/06/24 01:47:15;;;;;;;10.90;8.10;;;;;;;-128.00;-1.00;-1.00;18495;314;7504988;-33
2023/06/24 01:49:41;;;;;;;10.80;8.70;;;;;;;-128.00;-1.00;-1.00;18476;294;7505809;-35
2023/06/24 01:52:08;;;;;;;10.50;9.40;;;;;;;-128.00;-1.00;-1.00;18456;294;7504437;-33
2023/06/24 01:54:34;;;;;;;11.80;6.50;;;;;;;-128.00;-1.00;-1.00;18476;294;7504365;-33
2023/06/24 01:57:00;;;;;;;11.00;8.10;;;;;;;-128.00;-1.00;-1.00;18906;294;7505101;-35
2023/06/24 01:59:28;;;;;;;10.40;7.70;;;;;;;-128.00;-1.00;-1.00;18875;294;7504328;-32
2023/06/24 02:01:54;;;;;;;17.20;8.00;;;;;;;-128.00;-1.00;-1.00;18501;294;7504270;-32
2023/06/24 02:04:19;;;;;;;12.90;8.70;;;;;;;-128.00;-1.00;-1.00;18458;335;7506640;-35
2023/06/24 02:06:45;;;;;;;6.20;5.50;;;;;;;-128.00;-1.00;-1.00;18463;294;7504349;-35
2023/06/24 02:09:11;;;;;;;6.60;5.90;;;;;;;-128.00;-1.00;-1.00;18486;294;7504994;-33
2023/06/24 02:11:37;;;;;;;7.40;6.40;;;;;;;-128.00;-1.00;-1.00;18514;346;7504110;-32
2023/06/24 02:14:03;;;;;;;8.10;6.90;;;;;;;-128.00;-1.00;-1.00;18450;294;7506258;-32
2023/06/24 02:16:29;;;;;;;6.70;6.00;;;;;;;-128.00;-1.00;-1.00;18441;294;7505805;-35
2023/06/24 02:18:55;;;;;;;7.70;6.90;;;;;;;-128.00;-1.00;-1.00;18461;288;7504652;-35
2023/06/24 02:21:22;;;;;;;7.00;6.40;;;;;;;-128.00;-1.00;-1.00;18478;294;7504754;-36
2023/06/24 02:23:48;;;;;;;8.50;6.80;;;;;;;-128.00;-1.00;-1.00;18485;295;7506007;-32
2023/06/24 02:26:13;;;;;;;12.60;7.30;;;;;;;-128.00;-1.00;-1.00;18487;339;7506631;-32
2023/06/24 02:28:39;;;;;;;7.00;6.30;;;;;;;-128.00;-1.00;-1.00;18466;294;7505216;-35
2023/06/24 02:31:05;;;;;;;30.50;8.60;;;;;;;-128.00;-1.00;-1.00;18462;294;7505786;-35
2023/06/24 02:33:31;;;;;;;15.10;5.40;;;;;;;-128.00;-1.00;-1.00;18481;319;7505816;-35
2023/06/24 02:35:57;;;;;;;9.70;8.40;;;;;;;-128.00;-1.00;-1.00;18469;294;7506512;-32
2023/06/24 02:38:23;;;;;;;12.20;8.30;;;;;;;-128.00;-1.00;-1.00;18891;346;7504598;-35
2023/06/24 02:40:49;;;;;;;18.70;10.70;;;;;;;-128.00;-1.00;-1.00;18877;294;7505470;-33
2023/06/24 02:43:17;;;;;;;12.20;9.10;;;;;;;-128.00;-1.00;-1.00;18924;310;7505300;-33
2023/06/24 02:45:42;;;;;;;7.90;6.70;;;;;;;-128.00;-1.00;-1.00;18492;294;7504897;-36
2023/06/24 02:48:09;;;;;;;8.30;7.00;;;;;;;-128.00;-1.00;-1.00;18900;294;7505132;-36
2023/06/24 02:50:35;;;;;;;10.20;7.70;;;;;;;-128.00;-1.00;-1.00;18846;295;7504300;-34
2023/06/24 02:53:01;;;;;;;9.30;7.40;;;;;;;-128.00;-1.00;-1.00;18901;287;7504238;-35
2023/06/24 02:55:27;;;;;;;11.60;6.50;;;;;;;-128.00;-1.00;-1.00;18908;340;7504822;-33
2023/06/24 02:57:54;;;;;;;16.10;7.20;;;;;;;-128.00;-1.00;-1.00;18896;296;7504605;-35
2023/06/24 03:00:21;;;;;;;12.90;6.60;;;;;;;-128.00;-1.00;-1.00;18889;339;7504775;-35
2023/06/24 03:02:46;;;;;;;14.80;8.10;;;;;;;-128.00;-1.00;-1.00;18464;295;7504594;-36
2023/06/24 03:05:16;;;;;;;14.70;8.30;;;;;;;-128.00;-1.00;-1.00;18870;294;7505519;-33
2023/06/24 03:07:42;;;;;;;8.30;7.50;;;;;;;-128.00;-1.00;-1.00;18510;298;7504490;-35
2023/06/24 03:10:08;;;;;;;12.40;5.90;;;;;;;-128.00;-1.00;-1.00;18478;307;7504662;-33
2023/06/24 03:12:33;;;;;;;20.70;8.80;;;;;;;-128.00;-1.00;-1.00;18469;339;7506265;-35
2023/06/24 03:15:00;;;;;;;13.90;9.20;;;;;;;-128.00;-1.00;-1.00;18486;294;7505883;-34
2023/06/24 03:17:26;;;;;;;8.00;7.00;;;;;;;-128.00;-1.00;-1.00;18458;347;7506250;-33
2023/06/24 03:19:52;;;;;;;23.10;8.50;;;;;;;-128.00;-1.00;-1.00;18464;335;7504337;-33
2023/06/24 03:22:18;;;;;;;9.50;7.10;;;;;;;-128.00;-1.00;-1.00;18457;296;7505437;-33
2023/06/24 03:24:43;;;;;;;6.20;5.10;;;;;;;-128.00;-1.00;-1.00;18470;294;7504895;-36
2023/06/24 03:27:09;;;;;;;13.80;6.00;;;;;;;-128.00;-1.00;-1.00;18479;346;7504617;-36
2023/06/24 03:29:35;;;;;;;9.30;8.10;;;;;;;-128.00;-1.00;-1.00;18458;335;7506390;-36
2023/06/24 03:32:01;;;;;;;22.30;8.10;;;;;;;-128.00;-1.00;-1.00;18492;294;7504283;-36
2023/06/24 03:34:27;;;;;;;15.00;6.70;;;;;;;-128.00;-1.00;-1.00;18505;347;7506237;-33
2023/06/24 03:36:56;;;;;;;20.40;6.80;;;;;;;-128.00;-1.00;-1.00;18474;335;7504268;-37
2023/06/24 03:39:22;;;;;;;7.70;6.90;;;;;;;-128.00;-1.00;-1.00;18470;294;7504424;-32
2023/06/24 03:41:48;;;;;;;7.70;6.70;;;;;;;-128.00;-1.00;-1.00;18491;294;7504289;-32
2023/06/24 03:44:14;;;;;;;8.80;6.90;;;;;;;-128.00;-1.00;-1.00;18466;294;7506138;-35
2023/06/24 03:46:39;;;;;;;7.50;6.80;;;;;;;-128.00;-1.00;-1.00;18485;295;7505495;-35
2023/06/24 03:49:06;;;;;;;8.10;6.90;;;;;;;-128.00;-1.00;-1.00;18481;294;7504338;-32
2023/06/24 03:51:32;;;;;;;13.40;6.60;;;;;;;-128.00;-1.00;-1.00;18482;283;7506058;-32
2023/06/24 03:53:58;;;;;;;11.10;8.00;;;;;;;-128.00;-1.00;-1.00;18470;294;7506406;-32
2023/06/24 03:56:23;;;;;;;12.90;7.40;;;;;;;-128.00;-1.00;-1.00;18490;283;7504493;-32
2023/06/24 03:58:49;;;;;;;14.80;6.00;;;;;;;-128.00;-1.00;-1.00;18489;294;7504312;-35
2023/06/24 04:01:17;;;;;;;10.70;6.80;;;;;;;-128.00;-1.00;-1.00;18495;294;7504622;-33
2023/06/24 04:03:43;;;;;;;21.90;8.50;;;;;;;-128.00;-1.00;-1.00;18470;296;7506588;-34
2023/06/24 04:06:08;;;;;;;8.60;7.70;;;;;;;-128.00;-1.00;-1.00;18494;294;7505261;-31
2023/06/24 04:08:39;;;;;;;13.40;8.20;;;;;;;-128.00;-1.00;-1.00;18869;347;7505028;-35
2023/06/24 04:11:06;;;;;;;11.20;9.30;;;;;;;-128.00;-1.00;-1.00;18494;294;7505778;-33
2023/06/24 04:13:32;;;;;;;13.10;8.30;;;;;;;-128.00;-1.00;-1.00;18448;294;7504788;-36
2023/06/24 04:15:58;;;;;;;12.50;6.00;;;;;;;-128.00;-1.00;-1.00;18466;322;7504720;-36
2023/06/24 04:18:24;;;;;;;20.20;11.80;;;;;;;-128.00;-1.00;-1.00;18456;303;7505059;-36
2023/06/24 04:20:49;;;;;;;8.40;6.60;;;;;;;-128.00;-1.00;-1.00;18447;330;7505383;-34
2023/06/24 04:23:15;;;;;;;9.50;7.30;;;;;;;-128.00;-1.00;-1.00;18449;294;7504827;-33
2023/06/24 04:25:42;;;;;;;7.40;6.60;;;;;;;-128.00;-1.00;-1.00;18458;294;7504729;-35
2023/06/24 04:28:08;;;;;;;11.20;6.70;;;;;;;-128.00;-1.00;-1.00;18494;294;7506229;-33
2023/06/24 04:30:35;;;;;;;8.70;7.60;;;;;;;-128.00;-1.00;-1.00;18527;294;7504666;-34
2023/06/24 04:33:01;;;;;;;12.90;7.20;;;;;;;-128.00;-1.00;-1.00;18470;294;7506806;-35
2023/06/24 04:35:27;;;;;;;9.80;6.70;;;;;;;-128.00;-1.00;-1.00;18458;294;7506773;-35
2023/06/24 04:37:52;;;;;;;8.50;6.60;;;;;;;-128.00;-1.00;-1.00;18479;294;7504096;-33
2023/06/24 04:40:19;;;;;;;8.30;7.00;;;;;;;-128.00;-1.00;-1.00;18471;319;7504573;-32
2023/06/24 04:42:45;;;;;;;12.80;5.70;;;;;;;-128.00;-1.00;-1.00;18452;295;7505702;-32
2023/06/24 04:45:11;;;;;;;7.50;4.00;;;;;;;-128.00;-1.00;-1.00;18460;330;7504728;-32
2023/06/24 04:47:37;;;;;;;11.90;5.90;;;;;;;-128.00;-1.00;-1.00;18484;295;7504765;-35
2023/06/24 04:50:03;;;;;;;6.40;5.50;;;;;;;-128.00;-1.00;-1.00;18466;294;7504517;-37
2023/06/24 04:52:29;;;;;;;6.40;5.80;;;;;;;-128.00;-1.00;-1.00;18466;294;7505544;-36
2023/06/24 04:54:54;;;;;;;9.60;5.50;;;;;;;-128.00;-1.00;-1.00;18485;294;7504693;-36
2023/06/24 04:57:28;;;;;;;8.30;5.20;;;;;;;-128.00;-1.00;-1.00;18484;294;7505847;-34
2023/06/24 04:59:54;;;;;;;6.40;5.70;;;;;;;-128.00;-1.00;-1.00;18516;295;7504771;-34
2023/06/24 05:02:19;;;;;;;6.20;5.60;;;;;;;-128.00;-1.00;-1.00;18468;294;7504502;-35
2023/06/24 05:04:45;;;;;;;6.30;5.20;;;;;;;-128.00;-1.00;-1.00;18468;294;7504743;-33
2023/06/24 05:07:11;;;;;;;6.50;4.30;;;;;;;-128.00;-1.00;-1.00;18476;347;7504886;-32
2023/06/24 05:09:37;;;;;;;11.10;6.20;;;;;;;-128.00;-1.00;-1.00;18495;306;7504206;-33
2023/06/24 05:12:06;;;;;;;6.50;5.80;;;;;;;-128.00;-1.00;-1.00;18466;294;7504897;-32
2023/06/24 05:14:34;;;;;;;9.80;5.30;;;;;;;-128.00;-1.00;-1.00;18460;294;7505589;-32
2023/06/24 05:17:00;;;;;;;6.50;5.50;;;;;;;-128.00;-1.00;-1.00;18483;296;7504397;-37
2023/06/24 05:19:26;;;;;;;7.10;4.80;;;;;;;-128.00;-1.00;-1.00;18494;294;7505997;-33
2023/06/24 05:21:52;;;;;;;5.50;4.70;;;;;;;-128.00;-1.00;-1.00;18473;287;7504938;-32
2023/06/24 05:24:18;;;;;;;12.00;6.90;;;;;;;-128.00;-1.00;-1.00;18869;294;7504225;-35
2023/06/24 05:26:50;;;;;;;6.70;4.90;;;;;;;-128.00;-1.00;-1.00;18870;295;7504662;-31
2023/06/24 05:29:16;;;;;;;;;;;;;;;-128.00;-1.00;-1.00;18494;306;7504180;-33
2023/06/24 05:31:42;;;;;;;4.30;3.70;;;;;;;-128.00;-1.00;-1.00;18457;294;7504829;-35
2023/06/24 05:34:08;;;;;;;6.10;4.60;;;;;;;-128.00;-1.00;-1.00;18476;294;7505051;-34
2023/06/24 05:36:34;;;;;;;5.10;3.90;;;;;;;-128.00;-1.00;-1.00;18497;294;7504655;-35
2023/06/24 05:39:00;;;;;;;6.60;6.00;;;;;;;-128.00;-1.00;-1.00;18513;295;7506350;-35
2023/06/24 05:41:25;;;;;;;5.20;4.70;;;;;;;-128.00;-1.00;-1.00;18482;294;7504453;-33
2023/06/24 05:44:01;;;;;;;5.80;4.60;;;;;;;-128.00;-1.00;-1.00;18470;294;7504320;-35
2023/06/24 05:46:27;;;;;;;6.20;5.20;;;;;;;-128.00;-1.00;-1.00;18481;294;7506127;-36
2023/06/24 05:48:53;;;;;;;15.90;6.10;;;;;;;-128.00;-1.00;-1.00;18893;295;7505587;-33
2023/06/24 05:51:19;;;;;;;7.90;5.60;;;;;;;-128.00;-1.00;-1.00;18905;340;7505031;-32
2023/06/24 05:53:45;;;;;;;9.90;4.80;;;;;;;-128.00;-1.00;-1.00;18907;294;7504169;-35
2023/06/24 05:56:12;;;;;;;7.90;5.80;;;;;;;-128.00;-1.00;-1.00;18866;302;7504149;-33
2023/06/24 05:58:38;;;;;;;6.30;4.40;;;;;;;-128.00;-1.00;-1.00;18873;294;7504279;-35
2023/06/24 06:01:04;;;;;;;10.40;4.60;;;;;;;-128.00;-1.00;-1.00;18889;283;7505143;-31
2023/06/24 06:03:31;;;;;;;10.70;6.90;;;;;;;-128.00;-1.00;-1.00;18896;294;7504574;-31
2023/06/24 06:05:56;;;;;;;6.50;5.70;;;;;;;-128.00;-1.00;-1.00;18470;335;7504358;-31
2023/06/24 06:08:23;;;;;;;9.40;5.30;;;;;;;-128.00;-1.00;-1.00;18861;294;7504101;-36
2023/06/24 06:10:49;;;;;;;14.50;5.80;;;;;;;-128.00;-1.00;-1.00;18901;295;7504435;-36
2023/06/24 06:13:15;;;;;;;5.90;4.50;;;;;;;-128.00;-1.00;-1.00;18906;294;7504571;-32
2023/06/24 06:15:41;;;;;;;5.80;4.20;;;;;;;-128.00;-1.00;-1.00;18860;294;7505094;-33
2023/06/24 06:18:07;;;;;;;5.00;4.30;;;;;;;-128.00;-1.00;-1.00;18866;294;7504508;-32
2023/06/24 06:20:34;;;;;;;6.50;4.30;;;;;;;-128.00;-1.00;-1.00;18887;294;7505264;-31
2023/06/24 06:23:00;;;;;;;12.80;5.10;;;;;;;-128.00;-1.00;-1.00;18877;318;7504333;-35
2023/06/24 06:25:26;;;;;;;7.20;5.30;;;;;;;-128.00;-1.00;-1.00;18895;310;7505922;-35
2023/06/24 06:27:52;;;;;;;7.90;6.00;;;;;;;-128.00;-1.00;-1.00;18892;294;7504582;-33
2023/06/24 06:30:18;;;;;;;7.00;5.80;;;;;;;-128.00;-1.00;-1.00;18904;319;7504589;-33
2023/06/24 06:32:45;;;;;;;11.70;6.50;;;;;;;-128.00;-1.00;-1.00;18914;307;7504846;-33
2023/06/24 06:35:11;;;;;;;6.70;6.10;;;;;;;-128.00;-1.00;-1.00;18891;283;7504875;-32
2023/06/24 06:37:37;;;;;;;6.00;5.00;;;;;;;-128.00;-1.00;-1.00;18868;294;7504891;-31
2023/06/24 06:40:04;;;;;;;11.00;6.20;;;;;;;-128.00;-1.00;-1.00;18884;295;7506157;-34
2023/06/24 06:42:30;;;;;;;4.90;4.50;;;;;;;-128.00;-1.00;-1.00;18477;294;7504383;-35
2023/06/24 06:44:56;;;;;;;6.30;5.70;;;;;;;-128.00;-1.00;-1.00;18472;294;7504799;-31
2023/06/24 06:47:22;;;;;;;5.90;5.20;;;;;;;-128.00;-1.00;-1.00;18465;294;7504824;-32
2023/06/24 06:49:49;;;;;;;11.10;4.60;;;;;;;-128.00;-1.00;-1.00;18464;314;7504863;-35
2023/06/24 06:52:15;;;;;;;7.70;4.80;;;;;;;-128.00;-1.00;-1.00;18888;295;7504247;-33
2023/06/24 06:54:41;;;;;;;12.90;4.60;;;;;;;-128.00;-1.00;-1.00;18508;343;7504877;-32
2023/06/24 06:57:07;;;;;;;6.20;5.50;;;;;;;-128.00;-1.00;-1.00;18492;295;7504332;-32
2023/06/24 06:59:32;;;;;;;9.00;6.10;;;;;;;-128.00;-1.00;-1.00;18496;294;7504933;-36
2023/06/24 07:01:58;;;;;;;5.20;4.70;;;;;;;-128.00;-1.00;-1.00;18485;319;7506055;-36
2023/06/24 07:04:24;;;;;;;6.10;5.30;;;;;;;-128.00;-1.00;-1.00;18468;294;7506173;-36
2023/06/24 07:06:49;;;;;;;6.00;5.40;;;;;;;-128.00;-1.00;-1.00;18456;294;7504311;-35
2023/06/24 07:09:15;;;;;;;8.00;7.20;;;;;;;-128.00;-1.00;-1.00;18487;307;7505853;-32
2023/06/24 07:11:42;;;;;;;12.60;5.60;;;;;;;-128.00;-1.00;-1.00;18459;294;7504328;-33
2023/06/24 07:14:07;;;;;;;5.30;4.60;;;;;;;-128.00;-1.00;-1.00;18455;319;7505279;-35
2023/06/24 07:16:33;;;;;;;7.70;4.70;;;;;;;-128.00;-1.00;-1.00;18463;346;7504639;-35
2023/06/24 07:18:59;;;;;;;5.90;4.90;;;;;;;-128.00;-1.00;-1.00;18466;335;7504860;-35
2023/06/24 07:21:25;;;;;;;7.60;3.80;;;;;;;-128.00;-1.00;-1.00;18481;294;7505760;-33
2023/06/24 07:23:50;;;;;;;5.90;4.60;;;;;;;-128.00;-1.00;-1.00;18450;294;7506803;-35
2023/06/24 07:26:16;;;;;;;5.60;4.70;;;;;;;-128.00;-1.00;-1.00;18485;311;7504549;-35
2023/06/24 07:28:42;;;;;;;5.30;3.90;;;;;;;-128.00;-1.00;-1.00;18488;294;7504591;-33
2023/06/24 07:31:07;;;;;;;5.70;3.50;;;;;;;-128.00;-1.00;-1.00;18475;287;7504909;-34
2023/06/24 07:33:33;;;;;;;6.40;3.80;;;;;;;-128.00;-1.00;-1.00;18487;298;7504546;-34
2023/06/24 07:36:00;;;;;;;11.10;4.60;;;;;;;-128.00;-1.00;-1.00;18504;346;7506756;-32
2023/06/24 07:38:28;;;;;;;3.90;3.20;;;;;;;-128.00;-1.00;-1.00;18455;294;7504468;-35
2023/06/24 07:40:54;;;;;;;3.10;2.90;;;;;;;-128.00;-1.00;-1.00;18478;302;7506547;-35
2023/06/24 07:43:19;;;;;;;4.40;3.30;;;;;;;-128.00;-1.00;-1.00;18472;294;7504783;-35
2023/06/24 07:45:45;;;;;;;10.30;2.80;;;;;;;-128.00;-1.00;-1.00;18891;294;7504599;-35
2023/06/24 07:48:12;;;;;;;4.30;2.80;;;;;;;-128.00;-1.00;-1.00;18860;319;7504825;-37
2023/06/24 07:50:38;;;;;;;3.40;2.30;;;;;;;-128.00;-1.00;-1.00;18857;294;7504565;-37
2023/06/24 07:53:04;;;;;;;2.40;1.60;;;;;;;-128.00;-1.00;-1.00;18479;335;7506127;-33
2023/06/24 07:55:30;;;;;;;3.50;2.50;;;;;;;-128.00;-1.00;-1.00;18914;335;7505222;-37
2023/06/24 07:57:58;;;;;;;3.00;2.30;;;;;;;-128.00;-1.00;-1.00;18926;319;7504609;-35
2023/06/24 08:00:24;;;;;;;2.20;1.60;;;;;;;-128.00;-1.00;-1.00;18477;295;7504611;-37
2023/06/24 08:02:50;;;;;;;6.80;2.00;;;;;;;-128.00;-1.00;-1.00;18471;347;7505413;-33
2023/06/24 08:05:18;;;;;;;3.20;2.40;;;;;;;-128.00;-1.00;-1.00;18464;294;7505584;-33
2023/06/24 08:07:44;;;;;;;8.40;2.40;;;;;;;-128.00;-1.00;-1.00;18492;294;7506895;-34
2023/06/24 08:10:10;;;;;;;2.50;1.60;;;;;;;-128.00;-1.00;-1.00;18479;294;7504401;-33
2023/06/24 08:12:36;;;;;;;2.40;2.10;;;;;;;-128.00;-1.00;-1.00;18469;294;7504583;-31
2023/06/24 08:15:02;;;;;;;21.90;2.30;;;;;;;-128.00;-1.00;-1.00;18500;294;7506047;-35
2023/06/24 08:17:27;;;;;;;3.40;2.70;;;;;;;-128.00;-1.00;-1.00;18488;287;7504190;-35
2023/06/24 08:19:53;;;;;;;2.00;1.50;;;;;;;-128.00;-1.00;-1.00;18461;294;7504204;-32
2023/06/24 08:22:19;;;;;;;2.10;1.40;;;;;;;-128.00;-1.00;-1.00;18505;294;7507419;-39
2023/06/24 08:24:45;;;;;;;18.00;2.90;;;;;;;-128.00;-1.00;-1.00;18876;335;7505779;-32
2023/06/24 08:27:11;;;;;;;4.60;2.60;;;;;;;-128.00;-1.00;-1.00;18921;347;7504835;-32
2023/06/24 08:29:38;;;;;;;2.50;2.20;;;;;;;-128.00;-1.00;-1.00;18889;335;7506410;-36
2023/06/24 08:32:06;;;;;;;4.10;2.30;;;;;;;-128.00;-1.00;-1.00;18891;294;7505100;-33
2023/06/24 08:34:33;;;;;;;3.10;2.40;;;;;;;-128.00;-1.00;-1.00;18493;295;7504593;-36
2023/06/24 08:36:59;;;;;;;8.90;2.20;;;;;;;-128.00;-1.00;-1.00;18485;294;7504769;-33
2023/06/24 08:39:25;;;;;;;3.40;2.30;;;;;;;-128.00;-1.00;-1.00;18848;318;7504455;-33
2023/06/24 08:41:52;;;;;;;2.80;2.50;;;;;;;-128.00;-1.00;-1.00;18883;342;7504691;-36
2023/06/24 08:44:18;;;;;;;3.20;2.40;;;;;;;-128.00;-1.00;-1.00;18447;294;7504377;-33
2023/06/24 08:46:44;;;;;;;3.70;2.80;;;;;;;-128.00;-1.00;-1.00;18906;295;7504744;-36
2023/06/24 08:49:29;;;;;;;5.50;2.90;;;;;;;-128.00;-1.00;-1.00;18866;294;7504956;-36
2023/06/24 08:52:08;;;;;;;2.90;1.70;;;;;;;-128.00;-1.00;-1.00;18439;295;7505987;-35
2023/06/24 08:54:35;;;;;;;4.60;1.80;;;;;;;-128.00;-1.00;-1.00;18499;294;7506059;-32
2023/06/24 08:57:04;;;;;;;3.60;2.90;;;;;;;-128.00;-1.00;-1.00;18466;294;7504815;-32
2023/06/24 08:59:31;;;;;;;7.50;2.30;;;;;;;-128.00;-1.00;-1.00;18479;294;7504577;-33
2023/06/24 09:01:57;;;;;;;2.70;2.30;;;;;;;-128.00;-1.00;-1.00;18521;294;7504808;-33
2023/06/24 09:04:22;;;;;;;3.20;2.40;;;;;;;-128.00;-1.00;-1.00;18502;346;7504673;-33
2023/06/24 09:06:48;;;;;;;4.30;2.60;;;;;;;-128.00;-1.00;-1.00;18853;294;7504905;-33
2023/06/24 09:09:19;;;;;;;4.50;3.00;;;;;;;-128.00;-1.00;-1.00;18886;295;7504226;-32
2023/06/24 09:11:57;;;;;;;2.40;2.10;;;;;;;-128.00;-1.00;-1.00;18490;294;7504357;-33
2023/06/24 09:14:27;;;;;;;10.90;3.40;;;;;;;-128.00;-1.00;-1.00;18476;295;7504533;-32
2023/06/24 09:16:54;;;;;;;3.10;2.50;;;;;;;-128.00;-1.00;-1.00;18512;294;7506070;-36
2023/06/24 09:19:23;;;;;;;3.10;2.60;;;;;;;-128.00;-1.00;-1.00;18493;347;7506721;-36
2023/06/24 09:21:51;;;;;;;2.30;1.70;;;;;;;-128.00;-1.00;-1.00;18048;331;7504576;-36
2023/06/24 09:24:17;;;;;;;5.60;4.00;;;;;;;-128.00;-1.00;-1.00;18465;314;7504099;-33
2023/06/24 09:26:44;;;;;;;3.90;3.60;;;;;;;-128.00;-1.00;-1.00;18485;294;7504744;-33
2023/06/24 09:29:13;;;;;;;5.80;3.00;;;;;;;-128.00;-1.00;-1.00;18451;295;7504381;-36
2023/06/24 09:31:55;;;;;;;2.80;2.50;;;;;;;-128.00;-1.00;-1.00;18462;294;7504735;-33
2023/06/24 09:34:21;;;;;;;4.60;3.40;;;;;;;-128.00;-1.00;-1.00;18480;294;7505114;-36
2023/06/24 09:36:54;;;;;;;2.70;2.20;;;;;;;-128.00;-1.00;-1.00;18453;294;7505838;-36
2023/06/24 09:39:22;;;;;;;3.60;3.30;;;;;;;-128.00;-1.00;-1.00;18490;294;7504134;-36
2023/06/24 09:41:51;;;;;;;5.00;3.60;;;;;;;-128.00;-1.00;-1.00;18473;294;7506139;-33
2023/06/24 09:44:18;;;;;;;4.00;3.70;;;;;;;-128.00;-1.00;-1.00;18482;287;7504342;-33
2023/06/24 09:46:45;;;;;;;4.60;3.10;;;;;;;-128.00;-1.00;-1.00;18501;295;7504395;-36
2023/06/24 09:49:11;;;;;;;4.50;3.70;;;;;;;-128.00;-1.00;-1.00;18469;294;7506195;-32
2023/06/24 09:51:38;;;;;;;10.30;3.20;;;;;;;-128.00;-1.00;-1.00;18503;294;7504488;-32
2023/06/24 09:54:07;;;;;;;4.00;2.90;;;;;;;-128.00;-1.00;-1.00;18457;294;7506242;-35
2023/06/24 09:56:36;;;;;;;4.70;4.00;;;;;;;-128.00;-1.00;-1.00;18479;295;7504228;-33
2023/06/24 09:59:03;;;;;;;3.90;3.60;;;;;;;-128.00;-1.00;-1.00;18462;294;7505949;-33
2023/06/24 10:01:29;;;;;;;5.00;2.50;;;;;;;-128.00;-1.00;-1.00;18488;294;7504916;-32
2023/06/24 10:03:54;;;;;;;3.00;1.80;;;;;;;-128.00;-1.00;-1.00;18462;294;7506464;-33
2023/06/24 10:06:21;;;;;;;8.50;4.80;;;;;;;-128.00;-1.00;-1.00;18864;335;7504444;-33
2023/06/24 10:08:47;;;;;;;4.70;3.40;;;;;;;-128.00;-1.00;-1.00;18874;294;7505184;-36
2023/06/24 10:11:13;;;;;;;10.30;4.30;;;;;;;-128.00;-1.00;-1.00;18895;295;7505321;-34
2023/06/24 10:13:39;;;;;;;5.30;3.20;;;;;;;-128.00;-1.00;-1.00;18906;288;7504500;-33
2023/06/24 10:16:05;;;;;;;6.20;4.80;;;;;;;-128.00;-1.00;-1.00;18910;296;7505509;-36
2023/06/24 10:18:36;;;;;;;6.30;5.60;;;;;;;-128.00;-1.00;-1.00;18886;294;7504999;-33
2023/06/24 10:21:06;;;;;;;13.40;6.10;;;;;;;-128.00;-1.00;-1.00;18468;295;7504837;-33
2023/06/24 10:23:52;;;;;;;8.40;4.60;;;;;;;-128.00;-1.00;-1.00;18447;309;7505810;-33
2023/06/24 10:26:28;;;;;;;11.00;4.60;;;;;;;-128.00;-1.00;-1.00;18507;295;7504160;-36
2023/06/24 10:29:10;;;;;;;6.60;3.30;;;;;;;-128.00;-1.00;-1.00;18491;294;7505143;-36
2023/06/24 10:31:54;;;;;;;3.20;2.90;;;;;;;-128.00;-1.00;-1.00;18497;294;7504995;-36
2023/06/24 10:34:41;;;;;;;6.60;4.20;;;;;;;-128.00;-1.00;-1.00;18482;287;7506039;-33
2023/06/24 10:37:24;;;;;;;3.40;3.10;;;;;;;-128.00;-1.00;-1.00;18483;294;7506436;-33
2023/06/24 10:39:57;;;;;;;7.50;3.40;;;;;;;-128.00;-1.00;-1.00;18485;294;7506558;-35
2023/06/24 10:42:41;;;;;;;7.10;5.20;;;;;;;-128.00;-1.00;-1.00;18467;294;7506397;-35
2023/06/24 10:45:15;;;;;;;3.70;2.90;;;;;;;-128.00;-1.00;-1.00;18471;319;7504521;-32
2023/06/24 10:47:46;;;;;;;9.30;3.70;;;;;;;-128.00;-1.00;-1.00;18462;294;7504270;-32
2023/06/24 10:50:17;;;;;;;4.10;2.10;;;;;;;-128.00;-1.00;-1.00;18488;296;7506372;-33
2023/06/24 10:52:53;;;;;;;6.10;3.90;;;;;;;-128.00;-1.00;-1.00;18488;294;7504830;-32
2023/06/24 10:55:19;;;;;;;5.00;4.50;;;;;;;-128.00;-1.00;-1.00;18488;319;7504444;-35
2023/06/24 10:57:45;;;;;;;4.90;4.40;;;;;;;-128.00;-1.00;-1.00;18481;335;7506640;-35
2023/06/24 11:00:12;;;;;;;4.40;4.00;;;;;;;-128.00;-1.00;-1.00;18453;294;7504349;-34
2023/06/24 11:02:38;;;;;;;3.90;3.20;;;;;;;-128.00;-1.00;-1.00;18462;295;7505427;-35
2023/06/24 11:05:04;;;;;;;4.10;3.70;;;;;;;-128.00;-1.00;-1.00;18474;294;7504545;-33
2023/06/24 11:07:31;;;;;;;5.20;4.50;;;;;;;-128.00;-1.00;-1.00;18479;294;7505301;-36
2023/06/24 11:10:13;;;;;;;4.00;2.50;;;;;;;-128.00;-1.00;-1.00;18489;294;7504505;-36
2023/06/24 11:12:40;;;;;;;3.40;2.60;;;;;;;-128.00;-1.00;-1.00;18474;294;7507288;-33
2023/06/24 11:15:06;;;;;;;5.30;2.00;;;;;;;-128.00;-1.00;-1.00;18483;339;7504664;-33
2023/06/24 11:17:33;;;;;;;3.40;1.80;;;;;;;-128.00;-1.00;-1.00;18498;294;7504349;-36
2023/06/24 11:19:59;;;;;;;3.00;2.20;;;;;;;-128.00;-1.00;-1.00;18456;294;7506115;-33
2023/06/24 11:22:25;;;;;;;9.80;3.10;;;;;;;-128.00;-1.00;-1.00;18480;294;7504404;-36
2023/06/24 11:24:51;;;;;;;4.30;2.50;;;;;;;-128.00;-1.00;-1.00;18502;310;7505945;-36
2023/06/24 11:27:24;;;;;;;2.80;2.00;;;;;;;-128.00;-1.00;-1.00;18469;294;7504816;-36
2023/06/24 11:29:51;;;;;;;3.20;2.30;;;;;;;-128.00;-1.00;-1.00;18467;294;7505346;-31
2023/06/24 11:32:17;;;;;;;4.10;3.40;;;;;;;-128.00;-1.00;-1.00;18471;294;7504574;-35
2023/06/24 11:34:43;;;;;;;3.00;2.70;;;;;;;-128.00;-1.00;-1.00;18493;346;7505993;-35
2023/06/24 11:37:12;;;;;;;3.50;2.40;;;;;;;-128.00;-1.00;-1.00;18493;314;7506246;-32
2023/06/24 11:39:38;;;;;;;3.70;2.10;;;;;;;-128.00;-1.00;-1.00;18488;294;7506013;-33
2023/06/24 11:42:06;;;;;;;5.70;2.90;;;;;;;-128.00;-1.00;-1.00;18497;294;7504288;-33
2023/06/24 11:44:31;;;;;;;3.80;3.20;;;;;;;-128.00;-1.00;-1.00;18475;294;7505980;-34
2023/06/24 11:47:10;;;;;;;6.40;4.30;;;;;;;-128.00;-1.00;-1.00;18894;294;7504880;-36
2023/06/24 11:49:51;;;;;;;7.00;2.90;;;;;;;-128.00;-1.00;-1.00;18503;339;7504447;-36
2023/06/24 11:52:17;;;;;;;3.80;2.80;;;;;;;-128.00;-1.00;-1.00;18489;294;7504580;-36
2023/06/24 11:54:43;;;;;;;4.50;3.60;;;;;;;-128.00;-1.00;-1.00;18496;294;7505793;-36
2023/06/24 11:57:09;;;;;;;5.30;3.00;;;;;;;-128.00;-1.00;-1.00;18502;339;7504857;-36
2023/06/24 11:59:35;;;;;;;3.50;2.90;;;;;;;-128.00;-1.00;-1.00;18488;307;7504406;-33
2023/06/24 12:02:03;;;;;;;5.00;2.90;;;;;;;-128.00;-1.00;-1.00;18493;346;7504207;-33
2023/06/24 12:04:29;;;;;;;5.40;4.50;;;;;;;-128.00;-1.00;-1.00;18487;294;7504453;-35
2023/06/24 12:06:55;;;;;;;6.00;3.50;;;;;;;-128.00;-1.00;-1.00;18456;296;7504251;-35
2023/06/24 12:09:21;;;;;;;8.90;4.70;;;;;;;-128.00;-1.00;-1.00;18511;294;7504449;-33
2023/06/24 12:11:47;;;;;;;8.40;4.40;;;;;;;-128.00;-1.00;-1.00;18465;322;7504863;-35
2023/06/24 12:14:13;;;;;;;6.50;5.90;;;;;;;-128.00;-1.00;-1.00;18899;287;7504211;-35